Time;durP1;ratioP1;P1;durP2;ratioP2;P2;SDS_P1;SDS_P2;PMS_P1;PMS_P2;Temp;Humidity;BMP_temperature;BMP_pressure;BME280_temperature;BME280_humidity;BME280_pressure;Samples;Min_cycle;Max_cycle;Signal;HPM_P1;HPM_P2
2023/05/04 00:01:17;;;;;;;1.85;0.85;;;;;;;10.69;100.00;100433.00;4880067;29;20156;-88
2023/05/04 00:03:42;;;;;;;1.90;1.80;;;;;;;10.63;100.00;100431.94;4858959;29;20412;-89
2023/05/04 00:06:08;;;;;;;1.60;1.50;;;;;;;10.60;100.00;100432.78;4876745;29;20048;-88
2023/05/04 00:08:33;;;;;;;0.80;0.80;;;;;;;10.52;100.00;100428.59;4861572;29;20041;-88
2023/05/04 00:10:59;;;;;;;1.25;0.70;;;;;;;10.46;100.00;100424.75;4862309;29;20041;-88
2023/05/04 00:13:25;;;;;;;0.63;0.63;;;;;;;10.46;100.00;100424.75;4876991;29;20139;-88
2023/05/04 00:15:51;;;;;;;0.65;0.65;;;;;;;10.42;100.00;100421.28;4872032;29;20044;-88
2023/05/04 00:18:16;;;;;;;2.35;1.88;;;;;;;10.33;100.00;100412.72;4843317;29;20041;-89
2023/05/04 00:20:42;;;;;;;1.60;0.82;;;;;;;10.31;100.00;100423.47;4862581;29;20417;-88
2023/05/04 00:23:08;;;;;;;1.05;1.05;;;;;;;10.27;100.00;100418.00;4874690;29;20049;-89
2023/05/04 00:25:33;;;;;;;2.95;2.58;;;;;;;10.26;100.00;100419.22;4866994;29;20523;-87
2023/05/04 00:27:59;;;;;;;3.33;2.13;;;;;;;10.29;100.00;100426.66;4853341;29;20052;-88
2023/05/04 00:30:24;;;;;;;0.98;0.93;;;;;;;10.25;100.00;100426.75;4876485;29;20048;-89
2023/05/04 00:32:51;;;;;;;2.20;1.88;;;;;;;10.18;100.00;100431.66;4861148;29;20560;-88
2023/05/04 00:35:16;;;;;;;0.82;0.82;;;;;;;10.09;100.00;100418.31;4859231;29;20041;-88
2023/05/04 00:37:42;;;;;;;1.83;1.73;;;;;;;10.01;100.00;100422.41;4877150;29;20044;-88
2023/05/04 00:40:08;;;;;;;1.92;1.25;;;;;;;10.05;100.00;100425.91;4876450;29;20437;-89
2023/05/04 00:42:34;;;;;;;1.02;1.00;;;;;;;9.92;100.00;100424.16;4862269;29;20048;-88
2023/05/04 00:45:00;;;;;;;3.50;0.93;;;;;;;9.93;100.00;100420.97;4860515;29;20047;-88
2023/05/04 00:47:25;;;;;;;1.13;1.13;;;;;;;9.86;100.00;100420.31;4874967;29;20055;-88
2023/05/04 00:49:51;;;;;;;1.90;1.80;;;;;;;9.90;100.00;100427.38;4879607;29;20051;-88
2023/05/04 00:52:18;;;;;;;2.08;1.15;;;;;;;9.78;100.00;100409.38;4859208;29;20458;-88
2023/05/04 00:54:45;;;;;;;3.88;1.10;;;;;;;9.86;100.00;100429.44;4860530;29;20532;-89
2023/05/04 00:57:11;;;;;;;2.63;1.85;;;;;;;9.84;100.00;100429.06;4888307;29;20171;-88
2023/05/04 00:59:38;;;;;;;1.98;1.27;;;;;;;9.82;100.00;100420.41;4897299;29;20204;-88
2023/05/04 01:10:18;;;;;;;5.63;2.20;;;;;;;9.77;100.00;100423.63;3252836;27;20047;-91
2023/05/04 01:12:48;;;;;;;1.38;1.27;;;;;;;9.77;100.00;100423.63;4918352;29;20048;-91
2023/05/04 01:15:13;;;;;;;1.55;1.45;;;;;;;9.76;100.00;100427.59;4902439;29;20046;-91
2023/05/04 01:17:39;;;;;;;3.53;2.83;;;;;;;9.72;100.00;100424.13;4897055;29;21310;-91
2023/05/04 01:20:05;;;;;;;1.65;1.55;;;;;;;9.61;100.00;100412.44;4921778;29;20346;-87
2023/05/04 01:22:31;;;;;;;0.95;0.95;;;;;;;9.72;100.00;100433.22;4892383;29;20048;-87
2023/05/04 01:24:56;;;;;;;2.08;1.92;;;;;;;9.63;100.00;100412.78;4873918;29;20042;-87
2023/05/04 01:27:25;;;;;;;1.15;1.08;;;;;;;9.56;100.00;100410.16;4903455;29;20052;-87
2023/05/04 01:30:16;;;;;;;0.32;0.32;;;;;;;9.59;100.00;100412.06;4889080;29;20051;-87
2023/05/04 01:32:44;;;;;;;1.23;0.98;;;;;;;9.58;100.00;100416.84;4909437;29;20501;-87
2023/05/04 01:35:11;;;;;;;1.63;1.27;;;;;;;9.65;100.00;100421.47;4873327;29;20036;-87
2023/05/04 01:37:37;;;;;;;0.68;0.68;;;;;;;9.59;100.00;100412.06;4908567;29;20521;-87
2023/05/04 01:40:04;;;;;;;3.08;1.95;;;;;;;9.57;100.00;100406.19;4892376;29;20388;-87
2023/05/04 01:42:29;;;;;;;0.32;0.32;;;;;;;9.67;100.00;100424.59;4891981;29;20044;-87
2023/05/04 01:44:55;;;;;;;2.63;2.28;;;;;;;9.64;100.00;100419.91;4873898;29;20502;-87
2023/05/04 01:47:21;;;;;;;1.92;1.42;;;;;;;9.60;100.00;100419.97;4902261;29;20087;-87
2023/05/04 01:49:48;;;;;;;1.30;1.25;;;;;;;9.63;100.00;100412.78;4890536;29;20059;-86
2023/05/04 01:52:14;;;;;;;2.55;2.35;;;;;;;9.55;100.00;100411.34;4906652;29;20127;-87
2023/05/04 01:54:40;;;;;;;5.47;1.88;;;;;;;9.56;100.00;100407.38;4876612;29;20146;-86
2023/05/04 01:57:06;;;;;;;1.45;1.35;;;;;;;9.61;100.00;100423.53;4889586;29;20051;-86
2023/05/04 01:59:32;;;;;;;3.13;2.10;;;;;;;9.62;100.00;100420.34;4874861;29;20046;-87
2023/05/04 02:01:57;;;;;;;2.38;1.00;;;;;;;9.59;100.00;100417.59;4895874;29;20138;-86
2023/05/04 02:04:25;;;;;;;3.03;1.23;;;;;;;9.55;100.00;100412.13;4899242;29;20605;-87
2023/05/04 02:06:50;;;;;;;2.42;2.22;;;;;;;9.46;100.00;100405.56;4879206;29;20064;-87
2023/05/04 02:09:16;;;;;;;2.35;2.15;;;;;;;9.62;100.00;100427.88;4859435;29;20044;-86
2023/05/04 02:11:42;;;;;;;1.50;1.40;;;;;;;9.61;100.00;100421.53;4877510;29;20079;-87
2023/05/04 02:14:08;;;;;;;2.13;1.45;;;;;;;9.62;100.00;100431.41;4888797;29;20160;-86
2023/05/04 02:16:34;;;;;;;1.17;1.00;;;;;;;9.58;100.00;100421.59;4896560;29;20043;-87
2023/05/04 02:19:00;;;;;;;0.60;0.60;;;;;;;9.52;100.00;100412.97;4898857;29;20505;-87
2023/05/04 02:21:25;;;;;;;1.48;1.38;;;;;;;9.59;100.00;100420.38;4904019;29;20383;-87
2023/05/04 02:23:51;;;;;;;1.83;1.73;;;;;;;9.45;100.00;100413.09;4896488;29;20044;-87
2023/05/04 02:26:16;;;;;;;2.25;1.88;;;;;;;9.58;100.00;100432.69;4897334;29;20052;-87
2023/05/04 02:28:42;;;;;;;1.92;1.75;;;;;;;9.64;100.00;100436.53;4891558;29;20051;-87
2023/05/04 02:31:07;;;;;;;1.15;1.05;;;;;;;9.58;100.00;100427.13;4883853;29;20118;-87
2023/05/04 02:33:34;;;;;;;2.50;2.30;;;;;;;9.61;100.00;100431.81;4898120;29;20055;-87
2023/05/04 02:35:59;;;;;;;2.53;1.88;;;;;;;9.62;100.00;100438.94;4881383;29;20040;-87
2023/05/04 02:38:25;;;;;;;1.58;1.48;;;;;;;9.51;100.00;100421.69;4882433;29;20421;-86
2023/05/04 02:40:51;;;;;;;0.90;0.73;;;;;;;9.58;100.00;100443.75;4881349;29;20068;-87
2023/05/04 02:43:16;;;;;;;2.15;1.95;;;;;;;9.62;100.00;100444.47;4884002;29;20048;-86
2023/05/04 02:45:42;;;;;;;1.42;1.33;;;;;;;9.55;100.00;100436.25;4885813;29;20438;-87
2023/05/04 02:48:08;;;;;;;1.77;1.67;;;;;;;9.56;100.00;100435.06;4893479;29;20032;-86
2023/05/04 02:50:33;;;;;;;1.30;1.10;;;;;;;9.53;100.00;100442.25;4879022;29;20369;-86
2023/05/04 02:52:59;;;;;;;1.80;1.70;;;;;;;9.59;100.00;100442.53;4897050;29;20036;-86
2023/05/04 02:55:25;;;;;;;1.77;1.67;;;;;;;9.53;100.00;100433.16;4880830;29;20044;-87
2023/05/04 02:57:50;;;;;;;1.35;1.20;;;;;;;9.53;100.00;100442.25;4881731;29;20050;-86
2023/05/04 03:00:16;;;;;;;1.80;1.70;;;;;;;9.52;100.00;100443.44;4877644;29;20059;-86
2023/05/04 03:02:42;;;;;;;0.68;0.68;;;;;;;9.44;100.00;100407.97;4866942;29;20048;-86
2023/05/04 03:05:08;;;;;;;1.13;1.02;;;;;;;9.51;100.00;100416.94;4891494;29;20055;-87
2023/05/04 03:07:33;;;;;;;0.65;0.65;;;;;;;9.50;100.00;100425.69;4880490;29;20498;-87
2023/05/04 03:09:59;;;;;;;1.70;1.60;;;;;;;9.48;100.00;100422.53;4878627;29;20051;-86
2023/05/04 03:12:25;;;;;;;2.42;1.35;;;;;;;9.41;100.00;100411.59;4863622;29;20040;-87
2023/05/04 03:14:51;;;;;;;2.47;1.92;;;;;;;9.55;100.00;100422.41;4866028;29;20043;-87
2023/05/04 03:17:17;;;;;;;1.23;0.73;;;;;;;9.52;100.00;100412.19;4888560;29;20043;-87
2023/05/04 03:19:43;;;;;;;0.90;0.90;;;;;;;9.44;100.00;100417.06;4882496;29;20040;-87
2023/05/04 03:22:09;;;;;;;1.15;1.02;;;;;;;9.44;100.00;100424.59;4897694;29;20427;-87
2023/05/04 03:24:36;;;;;;;1.15;1.05;;;;;;;9.44;100.00;100433.69;4859153;29;20050;-87
2023/05/04 03:27:02;;;;;;;2.50;2.30;;;;;;;9.38;100.00;100441.66;4901350;29;20051;-87
2023/05/04 03:29:28;;;;;;;1.48;1.38;;;;;;;9.38;100.00;100438.91;4891347;29;20414;-87
2023/05/04 03:31:55;;;;;;;4.85;1.65;;;;;;;9.36;100.00;100441.31;4883006;29;20032;-87
2023/05/04 03:34:21;;;;;;;0.73;0.73;;;;;;;9.17;100.00;100419.06;4871573;29;20101;-87
2023/05/04 03:36:50;;;;;;;1.23;1.20;;;;;;;9.27;100.00;100435.50;4884341;29;20202;-87
2023/05/04 03:39:16;;;;;;;1.73;1.38;;;;;;;9.31;100.00;100444.53;4882502;29;20503;-87
2023/05/04 03:41:42;;;;;;;2.45;1.98;;;;;;;9.23;100.00;100440.31;4870732;29;20036;-87
2023/05/04 03:44:08;;;;;;;1.25;1.15;;;;;;;9.22;100.00;100441.50;4863415;29;20079;-88
2023/05/04 03:46:34;;;;;;;1.00;1.00;;;;;;;9.27;100.00;100451.34;4887386;29;20123;-87
2023/05/04 03:49:00;;;;;;;1.23;1.15;;;;;;;9.13;100.00;100434.94;4899033;29;20039;-87
2023/05/04 03:51:26;;;;;;;1.40;1.30;;;;;;;9.16;100.00;100448.72;4887645;29;20044;-87
2023/05/04 03:53:52;;;;;;;1.45;1.35;;;;;;;9.11;100.00;100440.88;4895669;29;20569;-87
2023/05/04 03:56:17;;;;;;;2.85;2.03;;;;;;;9.22;100.00;100466.44;4867998;29;20048;-87
2023/05/04 03:58:43;;;;;;;1.17;1.17;;;;;;;9.23;100.00;100450.59;4899223;29;20103;-88
2023/05/04 04:01:08;;;;;;;1.58;1.48;;;;;;;9.29;100.00;100465.56;4860031;29;20050;-87
2023/05/04 04:03:37;;;;;;;3.10;2.65;;;;;;;9.15;100.00;100455.47;4880298;29;20079;-87
2023/05/04 04:06:04;;;;;;;2.22;2.13;;;;;;;9.19;100.00;100458.97;4883661;29;20569;-87
2023/05/04 04:08:30;;;;;;;1.55;1.45;;;;;;;9.18;100.00;100451.84;4892676;29;20458;-87
2023/05/04 04:10:57;;;;;;;0.50;0.50;;;;;;;9.24;100.00;100469.56;4899112;29;20048;-87
2023/05/04 04:13:22;;;;;;;0.65;0.65;;;;;;;9.23;100.00;100475.50;4895445;29;20040;-87
2023/05/04 04:15:49;;;;;;;2.95;1.50;;;;;;;9.16;100.00;100472.84;4882002;29;20040;-86
2023/05/04 04:18:15;;;;;;;0.45;0.45;;;;;;;9.08;100.00;100455.56;4890576;29;20128;-87
2023/05/04 04:20:40;;;;;;;0.35;0.35;;;;;;;9.19;100.00;100472.81;4883773;29;20271;-87
2023/05/04 04:23:06;;;;;;;3.67;2.10;;;;;;;9.26;100.00;100478.22;4898399;29;20048;-86
2023/05/04 04:25:32;;;;;;;1.83;1.73;;;;;;;9.25;100.00;100481.44;4878572;29;20040;-87
2023/05/04 04:27:57;;;;;;;2.25;1.90;;;;;;;9.15;100.00;100472.06;4880223;29;20077;-86
2023/05/04 04:30:23;;;;;;;1.38;1.27;;;;;;;9.22;100.00;100471.19;4893372;29;20110;-86
2023/05/04 04:32:48;;;;;;;1.50;1.33;;;;;;;9.23;100.00;100473.53;4881730;29;20062;-87
2023/05/04 04:35:14;;;;;;;0.80;0.80;;;;;;;9.28;100.00;100486.91;4913768;29;20036;-86
2023/05/04 04:37:40;;;;;;;0.70;0.68;;;;;;;9.35;100.00;100486.03;4865506;29;20056;-86
2023/05/04 04:40:06;;;;;;;2.72;1.80;;;;;;;9.31;100.00;100475.00;4863943;29;20147;-86
2023/05/04 04:42:32;;;;;;;1.02;1.02;;;;;;;9.40;100.00;100476.47;4879430;29;20040;-87
2023/05/04 04:44:58;;;;;;;1.83;1.73;;;;;;;9.49;100.00;100485.03;4880207;29;20132;-87
2023/05/04 04:47:24;;;;;;;4.07;2.55;;;;;;;9.56;100.00;100485.72;4913318;29;20193;-87
2023/05/04 04:49:49;;;;;;;3.75;1.65;;;;;;;9.47;100.00;100448.66;4877819;29;20594;-87
2023/05/04 04:52:16;;;;;;;1.13;1.13;;;;;;;9.42;100.00;100463.00;4887851;29;20151;-87
2023/05/04 04:54:44;;;;;;;1.35;1.20;;;;;;;9.62;100.00;100472.19;4888499;29;20040;-87
2023/05/04 04:57:09;;;;;;;2.80;1.30;;;;;;;9.60;100.00;100493.97;4895035;29;20486;-87
2023/05/04 04:59:36;;;;;;;0.30;0.30;;;;;;;9.50;100.00;100492.16;4898437;29;20068;-87
2023/05/04 05:02:03;;;;;;;1.73;1.60;;;;;;;9.60;100.00;100496.72;4896770;29;20040;-87
2023/05/04 05:04:29;;;;;;;1.13;1.08;;;;;;;9.62;100.00;100499.88;4885021;29;20048;-87
2023/05/04 05:06:55;;;;;;;1.15;1.02;;;;;;;9.69;100.00;100500.53;4902214;29;20100;-87
2023/05/04 05:09:21;;;;;;;1.48;1.38;;;;;;;9.81;100.00;100496.41;4881651;29;20130;-87
2023/05/04 05:11:46;;;;;;;2.15;1.50;;;;;;;9.98;100.00;100500.88;4895676;29;20141;-87
2023/05/04 05:14:12;;;;;;;1.00;1.00;;;;;;;9.94;100.00;100499.34;4896827;29;20048;-87
2023/05/04 05:16:37;;;;;;;1.42;1.25;;;;;;;10.07;100.00;100498.31;4883851;29;20612;-88
2023/05/04 05:19:03;;;;;;;1.27;1.17;;;;;;;9.99;100.00;100474.69;4900715;29;20040;-88
2023/05/04 05:21:29;;;;;;;0.60;0.60;;;;;;;10.00;100.00;100465.19;4908929;29;20051;-87
2023/05/04 05:23:54;;;;;;;1.25;1.13;;;;;;;10.19;100.00;100500.50;4864791;29;20040;-87
2023/05/04 05:26:20;;;;;;;2.42;2.22;;;;;;;10.41;100.00;100495.38;4880199;29;20506;-87
2023/05/04 05:28:46;;;;;;;1.48;1.38;;;;;;;10.49;100.00;100498.78;4872082;29;20487;-88
2023/05/04 05:31:11;;;;;;;1.45;1.35;;;;;;;10.61;100.00;100492.59;4883653;29;20040;-87
2023/05/04 05:33:37;;;;;;;1.33;1.23;;;;;;;10.65;100.00;100482.22;4917494;29;20744;-88
2023/05/04 05:36:04;;;;;;;1.50;1.40;;;;;;;10.92;100.00;100501.50;4891587;29;20060;-91
2023/05/04 05:38:30;;;;;;;0.45;0.45;;;;;;;11.02;100.00;100490.19;4903208;29;20049;-90
2023/05/04 05:40:56;;;;;;;1.00;1.00;;;;;;;10.82;100.00;100483.88;4874875;29;20044;-89
2023/05/04 05:43:21;;;;;;;0.70;0.70;;;;;;;10.72;100.00;100471.75;4882993;29;20048;-90
2023/05/04 05:45:48;;;;;;;1.10;1.00;;;;;;;10.60;100.00;100455.75;4884987;29;20080;-88
2023/05/04 05:48:14;;;;;;;2.00;1.40;;;;;;;10.71;100.00;100489.63;4878616;29;20048;-88
2023/05/04 05:50:39;;;;;;;2.42;1.83;;;;;;;10.70;100.00;100473.41;4871695;29;20617;-89
2023/05/04 05:53:05;;;;;;;1.50;1.40;;;;;;;10.86;100.00;100483.78;4887314;29;20047;-92
2023/05/04 05:55:31;;;;;;;1.02;1.02;;;;;;;11.07;100.00;100506.34;4896604;29;20046;-89
2023/05/04 05:57:56;;;;;;;2.95;1.55;;;;;;;10.91;100.00;100461.88;4869657;29;20045;-90
2023/05/04 06:00:23;;;;;;;2.70;1.77;;;;;;;11.36;100.00;100498.16;4880216;29;20045;-90
2023/05/04 06:02:49;;;;;;;1.10;1.10;;;;;;;11.35;100.00;100506.94;4880890;29;20503;-90
2023/05/04 06:05:15;;;;;;;0.95;0.90;;;;;;;11.44;100.00;100505.13;4888094;29;20043;-90
2023/05/04 06:07:41;;;;;;;1.65;1.55;;;;;;;11.76;100.00;100521.09;4877554;29;20398;-89
2023/05/04 06:10:07;;;;;;;1.55;1.45;;;;;;;11.98;100.00;100521.34;4881045;29;20612;-95
2023/05/04 06:12:33;;;;;;;2.58;1.48;;;;;;;12.11;100.00;100511.88;4887505;29;20048;-91
2023/05/04 06:14:59;;;;;;;0.88;0.88;;;;;;;11.94;100.00;100515.88;4875103;29;20379;-93
2023/05/04 06:17:24;;;;;;;1.25;0.73;;;;;;;11.91;100.00;100483.38;4891031;29;20047;-95
2023/05/04 06:19:50;;;;;;;2.17;1.10;;;;;;;11.89;100.00;100485.78;4884514;29;20052;-95
2023/05/04 06:22:16;;;;;;;0.95;0.70;;;;;;;12.49;100.00;100530.75;4882724;29;20392;-93
2023/05/04 06:24:41;;;;;;;3.25;2.63;;;;;;;12.45;100.00;100505.03;4875944;29;20051;-95
2023/05/04 06:27:10;;;;;;;1.00;0.93;;;;;;;12.62;100.00;100510.09;4875763;29;20052;-93
2023/05/04 06:29:40;;;;;;;1.35;1.00;;;;;;;12.58;100.00;100491.94;4882659;29;20143;-95
2023/05/04 06:32:07;;;;;;;0.88;0.85;;;;;;;12.60;100.00;100520.13;4897270;29;20052;-93
2023/05/04 06:34:32;;;;;;;1.38;0.95;;;;;;;12.76;100.00;100531.19;4867553;29;20545;-93
2023/05/04 06:36:58;;;;;;;0.63;0.63;;;;;;;12.73;100.00;100532.09;4886393;29;20036;-94
2023/05/04 06:39:23;;;;;;;0.73;0.73;;;;;;;12.86;100.00;100534.91;4875675;29;20561;-95
2023/05/04 06:41:52;;;;;;;0.70;0.70;;;;;;;12.79;100.00;100530.31;4889767;29;20048;-93
2023/05/04 06:44:18;;;;;;;0.77;0.57;;;;;;;13.17;100.00;100529.69;4881738;29;20139;-93
2023/05/04 06:46:44;;;;;;;0.77;0.77;;;;;;;13.19;100.00;100541.13;4878627;29;20049;-94
2023/05/04 06:49:09;;;;;;;5.65;1.55;;;;;;;13.23;100.00;100528.66;4887103;29;20471;-94
2023/05/04 06:51:36;;;;;;;0.43;0.40;;;;;;;13.41;100.00;100519.78;4880778;29;20075;-95
2023/05/04 06:54:02;;;;;;;1.90;1.80;;;;;;;13.59;100.00;100510.88;4869218;29;20048;-92
2023/05/04 06:56:27;;;;;;;0.77;0.68;;;;;;;13.62;100.00;100502.41;4889741;29;20430;-94
2023/05/04 06:58:53;;;;;;;0.70;0.70;;;;;;;13.85;100.00;100510.41;4859993;29;20495;-91
2023/05/04 07:01:19;;;;;;;0.95;0.95;;;;;;;13.75;100.00;100491.25;4869539;29;20052;-93
2023/05/04 07:03:46;;;;;;;0.32;0.32;;;;;;;14.10;100.00;100528.34;4889068;29;20053;-92
2023/05/04 07:06:12;;;;;;;0.60;0.60;;;;;;;14.14;100.00;100492.75;4892395;29;20092;-94
2023/05/04 07:08:40;;;;;;;1.58;1.45;;;;;;;14.42;100.00;100548.38;4869805;29;20048;-94
2023/05/04 07:11:08;;;;;;;1.38;1.20;;;;;;;14.32;100.00;100504.06;4889305;29;20533;-94
2023/05/04 07:13:36;;;;;;;1.05;1.02;;;;;;;14.20;100.00;100529.97;4884045;29;20582;-94
2023/05/04 07:16:05;;;;;;;0.65;0.65;;;;;;;14.26;100.00;100540.13;4866533;29;20062;-94
2023/05/04 07:18:31;;;;;;;1.70;1.42;;;;;;;14.42;100.00;100533.66;4895802;29;20100;-94
2023/05/04 07:20:56;;;;;;;2.45;1.75;;;;;;;14.91;100.00;100545.84;4876384;29;20049;-96
2023/05/04 07:23:24;;;;;;;2.53;1.30;;;;;;;14.71;100.00;100547.41;4884386;29;20063;-93
2023/05/04 07:25:53;;;;;;;1.80;0.90;;;;;;;14.35;100.00;100548.63;4871505;29;20076;-92
2023/05/04 07:28:19;;;;;;;1.10;1.05;;;;;;;14.45;100.00;100546.69;4899078;29;20036;-94
2023/05/04 07:30:48;;;;;;;2.47;1.70;;;;;;;14.91;100.00;100545.84;4883537;29;20048;-93
2023/05/04 07:33:14;;;;;;;1.35;1.23;;;;;;;14.88;100.00;100552.31;4880696;29;20124;-93
2023/05/04 07:35:40;;;;;;;1.35;1.25;;;;;;;15.08;100.00;100562.44;4867314;29;20561;-94
2023/05/04 07:38:07;;;;;;;0.30;0.30;;;;;;;14.93;100.00;100521.03;4883367;29;20454;-93
2023/05/04 07:40:32;;;;;;;0.95;0.95;;;;;;;15.11;99.76;100519.59;4898805;29;20055;-95
2023/05/04 07:42:58;;;;;;;0.65;0.65;;;;;;;15.60;99.36;100542.88;4884346;29;20032;-93
2023/05/04 07:45:23;;;;;;;1.10;1.00;;;;;;;15.78;97.62;100551.31;4874749;29;20559;-95
2023/05/04 07:47:52;;;;;;;0.90;0.85;;;;;;;15.74;94.73;100533.91;4895164;29;20037;-93
2023/05/04 07:50:18;;;;;;;0.80;0.80;;;;;;;15.81;94.27;100536.41;4903073;29;20625;-95
2023/05/04 07:52:45;;;;;;;1.17;1.10;;;;;;;16.12;94.50;100555.19;4904874;29;20052;-94
2023/05/04 07:55:14;;;;;;;0.52;0.52;;;;;;;16.10;89.72;100532.47;4875235;29;20051;-94
2023/05/04 07:57:40;;;;;;;1.02;1.02;;;;;;;15.78;88.57;100500.97;4879286;29;20052;-94
2023/05/04 08:00:09;;;;;;;4.93;1.85;;;;;;;15.48;89.60;100532.53;4870749;29;20055;-95
2023/05/04 08:02:42;;;;;;;0.63;0.63;;;;;;;15.51;91.91;100525.28;4873256;29;20052;-94
2023/05/04 08:05:08;;;;;;;1.13;1.02;;;;;;;16.00;92.42;100536.50;4845030;29;20049;-93
2023/05/04 08:07:33;;;;;;;1.00;0.95;;;;;;;16.23;93.08;100519.13;4913500;29;20047;-94
2023/05/04 08:10:00;;;;;;;0.47;0.47;;;;;;;16.55;83.11;100540.94;4867839;29;20052;-94
2023/05/04 08:12:26;;;;;;;0.57;0.57;;;;;;;16.73;79.63;100554.97;4872731;29;20403;-94
2023/05/04 08:14:51;;;;;;;0.50;0.50;;;;;;;16.45;76.64;100547.78;4899829;29;20075;-94
2023/05/04 08:17:17;;;;;;;0.90;0.90;;;;;;;16.55;76.56;100563.34;4910185;29;20063;-94
2023/05/04 08:19:42;;;;;;;1.08;1.00;;;;;;;16.49;79.55;100548.41;4888185;29;20049;-95
2023/05/04 08:22:09;;;;;;;0.55;0.50;;;;;;;16.31;79.71;100532.34;4899018;29;20104;-94
2023/05/04 08:24:35;;;;;;;1.00;0.93;;;;;;;16.59;83.15;100535.97;4887467;29;20072;-94
2023/05/04 08:27:01;;;;;;;0.57;0.57;;;;;;;16.56;76.90;100511.69;4875191;29;20542;-95
2023/05/04 08:29:27;;;;;;;1.40;1.30;;;;;;;16.44;74.82;100546.22;4870176;29;20049;-94
2023/05/04 08:31:55;;;;;;;0.45;0.45;;;;;;;16.37;77.21;100540.16;4882451;29;20036;-94
2023/05/04 08:34:21;;;;;;;1.65;0.55;;;;;;;16.56;77.54;100536.09;4882698;29;20494;-93
2023/05/04 08:36:47;;;;;;;0.50;0.50;;;;;;;16.64;74.75;100526.19;4882871;29;20049;-93
2023/05/04 08:39:17;;;;;;;0.32;0.32;;;;;;;16.87;79.17;100547.19;4880210;29;20102;-93
2023/05/04 08:41:43;;;;;;;1.25;1.15;;;;;;;17.21;72.66;100524.41;4864699;29;20055;-94
2023/05/04 08:44:12;;;;;;;0.65;0.47;;;;;;;17.11;75.28;100528.47;4881899;29;20119;-94
2023/05/04 08:46:39;;;;;;;0.70;0.70;;;;;;;16.92;70.42;100512.94;4885390;29;20067;-95
2023/05/04 08:49:04;;;;;;;0.90;0.90;;;;;;;17.26;72.20;100551.81;4893757;29;20040;-94
2023/05/04 08:51:34;;;;;;;0.82;0.77;;;;;;;17.42;71.21;100512.22;4882448;29;20051;-92
2023/05/04 08:54:00;;;;;;;1.63;0.73;;;;;;;17.59;71.05;100516.19;4885738;29;20060;-94
2023/05/04 08:56:26;;;;;;;0.63;0.63;;;;;;;17.91;66.60;100527.94;4886090;29;20048;-93
2023/05/04 08:58:52;;;;;;;0.70;0.70;;;;;;;17.93;67.77;100512.16;4902413;29;20071;-93
2023/05/04 09:01:18;;;;;;;1.60;0.55;;;;;;;18.32;69.19;100529.84;4888857;29;20052;-94
2023/05/04 09:03:45;;;;;;;1.58;1.48;;;;;;;18.72;67.93;100539.88;4884340;29;20123;-93
2023/05/04 09:06:12;;;;;;;15.65;1.83;;;;;;;18.41;62.34;100515.72;4877490;29;20127;-94
2023/05/04 09:08:38;;;;;;;1.17;1.08;;;;;;;18.46;63.87;100536.78;4873518;29;20116;-93
2023/05/04 09:11:04;;;;;;;0.57;0.57;;;;;;;18.21;63.82;100540.84;4890158;29;20562;-93
2023/05/04 09:13:30;;;;;;;1.65;0.55;;;;;;;18.46;63.11;100529.13;4887631;29;20099;-93
2023/05/04 09:15:57;;;;;;;0.45;0.45;;;;;;;18.70;63.05;100548.78;4878739;29;20195;-94
2023/05/04 09:18:22;;;;;;;0.63;0.55;;;;;;;18.40;62.16;100527.47;4896286;29;20521;-94
2023/05/04 09:20:48;;;;;;;0.77;0.77;;;;;;;18.79;61.97;100536.69;4876540;29;20049;-93
2023/05/04 09:23:16;;;;;;;0.68;0.50;;;;;;;18.55;62.18;100519.88;4880885;29;20066;-94
2023/05/04 09:25:55;;;;;;;1.65;1.55;;;;;;;18.88;62.78;100542.25;4894187;29;20167;-94
2023/05/04 09:28:37;;;;;;;0.93;0.85;;;;;;;18.96;64.46;100537.81;4896217;29;20147;-93
2023/05/04 09:31:03;;;;;;;0.20;0.20;;;;;;;19.14;62.59;100520.75;4898018;29;20048;-90
2023/05/04 09:33:28;;;;;;;1.15;1.05;;;;;;;19.47;60.25;100535.41;4879828;29;20055;-91
2023/05/04 09:35:55;;;;;;;0.73;0.73;;;;;;;19.81;53.93;100533.13;4893226;29;20475;-90
2023/05/04 09:38:27;;;;;;;2.17;0.90;;;;;;;19.33;56.34;100529.78;4888053;29;20406;-90
2023/05/04 09:40:54;;;;;;;0.90;0.90;;;;;;;19.30;57.74;100503.38;4880647;29;20046;-90
2023/05/04 09:43:21;;;;;;;1.08;0.88;;;;;;;19.63;57.86;100533.34;4882779;29;20421;-89
2023/05/04 09:45:47;;;;;;;0.20;0.20;;;;;;;19.85;55.71;100539.34;4896751;29;20150;-91
2023/05/04 09:48:17;;;;;;;0.30;0.30;;;;;;;20.00;56.17;100532.41;4876299;29;20060;-91
2023/05/04 09:50:57;;;;;;;0.95;0.50;;;;;;;20.00;54.98;100515.50;4878437;29;20055;-89
2023/05/04 09:53:27;;;;;;;1.42;1.00;;;;;;;19.59;56.23;100515.88;4880469;29;20032;-89
2023/05/04 09:56:05;;;;;;;0.50;0.40;;;;;;;19.45;56.23;100531.53;4878163;29;20049;-90
2023/05/04 09:58:31;;;;;;;1.35;1.25;;;;;;;19.65;54.51;100519.59;4890865;29;20051;-90
2023/05/04 10:00:59;;;;;;;0.43;0.43;;;;;;;19.69;57.58;100517.34;4862923;29;20048;-90
2023/05/04 10:03:25;;;;;;;4.57;1.25;;;;;;;19.75;54.37;100521.78;4862972;29;20044;-90
2023/05/04 10:05:52;;;;;;;0.68;0.68;;;;;;;19.58;55.99;100511.53;4877569;29;20053;-89
2023/05/04 10:08:17;;;;;;;0.40;0.40;;;;;;;19.46;55.23;100511.34;4877596;29;20060;-90
2023/05/04 10:10:44;;;;;;;7.53;1.75;;;;;;;19.48;58.23;100494.78;4884875;29;20052;-90
2023/05/04 10:13:09;;;;;;;0.45;0.43;;;;;;;19.88;59.32;100491.28;4877724;29;20053;-90
2023/05/04 10:15:39;;;;;;;0.82;0.73;;;;;;;20.09;58.67;100511.78;4854204;29;20055;-89
2023/05/04 10:18:43;;;;;;;1.13;0.75;;;;;;;20.30;56.65;100493.63;4882010;29;20059;-90
2023/05/04 10:21:27;;;;;;;0.73;0.73;;;;;;;20.18;54.61;100500.38;4877383;29;20056;-89
2023/05/04 10:24:12;;;;;;;0.70;0.55;;;;;;;20.00;56.94;100475.31;4877499;29;20052;-90
2023/05/04 10:26:47;;;;;;;0.70;0.65;;;;;;;20.17;53.47;100500.88;4885181;29;20072;-89
2023/05/04 10:29:21;;;;;;;1.20;0.60;;;;;;;19.97;57.38;100488.34;4895628;29;20048;-89
2023/05/04 10:31:47;;;;;;;0.43;0.43;;;;;;;20.23;60.25;100471.50;4893865;29;20081;-90
2023/05/04 10:34:22;;;;;;;0.25;0.25;;;;;;;20.47;57.54;100483.34;4878815;29;20044;-90
2023/05/04 10:36:48;;;;;;;1.05;1.02;;;;;;;20.75;53.77;100494.16;4896133;29;20383;-89
2023/05/04 10:39:19;;;;;;;0.73;0.52;;;;;;;20.73;52.79;100482.63;4874999;29;20111;-90
2023/05/04 10:41:58;;;;;;;0.32;0.32;;;;;;;20.58;51.91;100490.41;4889959;29;20044;-89
2023/05/04 10:44:23;;;;;;;0.20;0.20;;;;;;;20.47;55.12;100480.53;4882248;29;20040;-90
2023/05/04 10:47:02;;;;;;;0.47;0.47;;;;;;;20.36;55.99;100468.38;4862905;29;20056;-90
2023/05/04 10:49:28;;;;;;;0.28;0.28;;;;;;;20.48;53.69;100482.09;4887647;29;20132;-89
2023/05/04 10:52:07;;;;;;;0.70;0.65;;;;;;;20.36;54.12;100477.59;4868221;29;20068;-89
2023/05/04 10:54:37;;;;;;;0.90;0.38;;;;;;;20.09;53.23;100458.28;4895589;29;20599;-89
2023/05/04 10:57:10;;;;;;;0.30;0.30;;;;;;;20.13;54.55;100443.97;4880007;29;20044;-90
2023/05/04 10:59:36;;;;;;;0.50;0.50;;;;;;;20.37;54.57;100450.97;4873459;29;20124;-89
2023/05/04 11:02:03;;;;;;;1.23;1.00;;;;;;;20.95;53.75;100486.44;4891633;29;20048;-89
2023/05/04 11:04:30;;;;;;;0.88;0.73;;;;;;;20.91;51.12;100454.84;4869526;29;20499;-89
2023/05/04 11:07:00;;;;;;;0.80;0.80;;;;;;;20.94;52.51;100450.28;4875242;29;20151;-89
2023/05/04 11:09:27;;;;;;;1.00;0.60;;;;;;;20.75;51.01;100451.88;4863657;29;20499;-89
2023/05/04 11:11:54;;;;;;;0.40;0.40;;;;;;;20.80;52.18;100449.13;4884394;29;20052;-89
2023/05/04 11:14:23;;;;;;;0.65;0.52;;;;;;;20.68;51.97;100455.13;4882979;29;20115;-89
2023/05/04 11:16:49;;;;;;;1.33;0.95;;;;;;;20.32;53.37;100445.25;4900095;29;20079;-89
2023/05/04 11:19:16;;;;;;;0.75;0.52;;;;;;;20.39;51.85;100454.06;4882770;29;20056;-89
2023/05/04 11:21:42;;;;;;;0.65;0.55;;;;;;;20.68;54.99;100461.56;4867656;29;20483;-89
2023/05/04 11:24:08;;;;;;;0.20;0.20;;;;;;;20.91;53.12;100465.34;4888701;29;20135;-89
2023/05/04 11:26:44;;;;;;;0.40;0.40;;;;;;;21.13;50.55;100448.69;4882340;29;20424;-89
2023/05/04 11:29:13;;;;;;;0.20;0.20;;;;;;;21.02;50.92;100411.13;4893662;29;20497;-89